sensor_id;sensor_type;location;lat;lon;timestamp;temperature;humidity
60717;DHT22;46566;52.700;6.192;2023-03-23T00:01:51;11.60;99.90
60717;DHT22;46566;52.700;6.192;2023-03-23T00:04:17;11.60;99.90
60717;DHT22;46566;52.700;6.192;2023-03-23T00:06:43;11.60;99.90
60717;DHT22;46566;52.700;6.192;2023-03-23T00:09:11;11.60;99.90
60717;DHT22;46566;52.700;6.192;2023-03-23T00:11:36;11.60;99.90
60717;DHT22;46566;52.700;6.192;2023-03-23T00:14:02;11.60;99.90
60717;DHT22;46566;52.700;6.192;2023-03-23T00:16:29;11.70;99.90
60717;DHT22;46566;52.700;6.192;2023-03-23T00:19:18;11.70;99.90
60717;DHT22;46566;52.700;6.192;2023-03-23T00:21:44;11.70;99.90
60717;DHT22;46566;52.700;6.192;2023-03-23T00:24:17;11.60;99.90
60717;DHT22;46566;52.700;6.192;2023-03-23T00:26:46;11.70;99.90
60717;DHT22;46566;52.700;6.192;2023-03-23T00:29:13;11.60;99.90
60717;DHT22;46566;52.700;6.192;2023-03-23T00:31:40;11.60;99.90
60717;DHT22;46566;52.700;6.192;2023-03-23T00:34:06;11.60;99.90
60717;DHT22;46566;52.700;6.192;2023-03-23T00:36:32;11.50;99.90
60717;DHT22;46566;52.700;6.192;2023-03-23T00:39:03;11.60;99.90
60717;DHT22;46566;52.700;6.192;2023-03-23T00:41:29;11.60;99.90
60717;DHT22;46566;52.700;6.192;2023-03-23T00:43:55;11.60;99.90
60717;DHT22;46566;52.700;6.192;2023-03-23T00:46:22;11.70;99.90
60717;DHT22;46566;52.700;6.192;2023-03-23T00:48:47;11.70;99.90
60717;DHT22;46566;52.700;6.192;2023-03-23T00:51:13;11.70;99.90
60717;DHT22;46566;52.700;6.192;2023-03-23T00:53:39;11.70;99.90
60717;DHT22;46566;52.700;6.192;2023-03-23T00:56:05;11.70;99.90
60717;DHT22;46566;52.700;6.192;2023-03-23T00:58:31;11.60;99.90
60717;DHT22;46566;52.700;6.192;2023-03-23T01:00:57;11.60;99.90
60717;DHT22;46566;52.700;6.192;2023-03-23T01:03:22;11.60;99.90
60717;DHT22;46566;52.700;6.192;2023-03-23T01:05:51;11.60;99.90
60717;DHT22;46566;52.700;6.192;2023-03-23T01:08:17;11.70;99.90
60717;DHT22;46566;52.700;6.192;2023-03-23T01:10:44;11.60;99.90
60717;DHT22;46566;52.700;6.192;2023-03-23T01:13:10;11.60;99.90
60717;DHT22;46566;52.700;6.192;2023-03-23T01:15:36;11.60;99.90
60717;DHT22;46566;52.700;6.192;2023-03-23T01:18:02;11.60;99.90
60717;DHT22;46566;52.700;6.192;2023-03-23T01:20:28;11.70;99.90
60717;DHT22;46566;52.700;6.192;2023-03-23T01:22:57;11.70;99.90
60717;DHT22;46566;52.700;6.192;2023-03-23T01:25:26;11.60;99.90
60717;DHT22;46566;52.700;6.192;2023-03-23T01:27:52;11.60;99.90
60717;DHT22;46566;52.700;6.192;2023-03-23T01:30:18;11.60;99.90
60717;DHT22;46566;52.700;6.192;2023-03-23T01:32:43;11.60;99.90
60717;DHT22;46566;52.700;6.192;2023-03-23T01:35:09;11.60;99.90
60717;DHT22;46566;52.700;6.192;2023-03-23T01:37:35;11.60;99.90
60717;DHT22;46566;52.700;6.192;2023-03-23T01:40:01;11.60;99.90
60717;DHT22;46566;52.700;6.192;2023-03-23T01:42:30;11.60;99.90
60717;DHT22;46566;52.700;6.192;2023-03-23T01:47:41;11.60;99.90
60717;DHT22;46566;52.700;6.192;2023-03-23T01:50:07;11.60;99.90
60717;DHT22;46566;52.700;6.192;2023-03-23T01:52:33;11.70;99.90
60717;DHT22;46566;52.700;6.192;2023-03-23T01:55:01;11.60;99.90
60717;DHT22;46566;52.700;6.192;2023-03-23T01:57:27;11.60;99.90
60717;DHT22;46566;52.700;6.192;2023-03-23T01:59:56;11.60;99.90
60717;DHT22;46566;52.700;6.192;2023-03-23T02:02:25;11.60;99.90
60717;DHT22;46566;52.700;6.192;2023-03-23T02:04:54;11.60;99.90
60717;DHT22;46566;52.700;6.192;2023-03-23T02:07:21;11.60;99.90
60717;DHT22;46566;52.700;6.192;2023-03-23T02:09:50;11.60;99.90
60717;DHT22;46566;52.700;6.192;2023-03-23T02:12:15;11.60;99.90
60717;DHT22;46566;52.700;6.192;2023-03-23T02:14:41;11.60;99.90
60717;DHT22;46566;52.700;6.192;2023-03-23T02:17:08;11.60;99.90
60717;DHT22;46566;52.700;6.192;2023-03-23T02:27:28;11.50;99.90
60717;DHT22;46566;52.700;6.192;2023-03-23T02:30:11;11.60;99.90
60717;DHT22;46566;52.700;6.192;2023-03-23T02:32:44;11.50;99.90
60717;DHT22;46566;52.700;6.192;2023-03-23T02:35:18;11.50;99.90
60717;DHT22;46566;52.700;6.192;2023-03-23T02:37:58;11.50;99.90
60717;DHT22;46566;52.700;6.192;2023-03-23T02:40:27;11.50;99.90
60717;DHT22;46566;52.700;6.192;2023-03-23T02:42:56;11.50;99.90
60717;DHT22;46566;52.700;6.192;2023-03-23T02:45:22;11.50;99.90
60717;DHT22;46566;52.700;6.192;2023-03-23T02:47:51;11.50;99.90
60717;DHT22;46566;52.700;6.192;2023-03-23T02:50:17;11.60;99.90
60717;DHT22;46566;52.700;6.192;2023-03-23T02:52:45;11.50;99.90
60717;DHT22;46566;52.700;6.192;2023-03-23T02:55:12;11.50;99.90
60717;DHT22;46566;52.700;6.192;2023-03-23T02:57:39;11.50;99.90
60717;DHT22;46566;52.700;6.192;2023-03-23T03:00:06;11.50;99.90
60717;DHT22;46566;52.700;6.192;2023-03-23T03:02:39;11.50;99.90
60717;DHT22;46566;52.700;6.192;2023-03-23T03:12:51;11.50;99.90
60717;DHT22;46566;52.700;6.192;2023-03-23T03:15:27;11.50;99.90
60717;DHT22;46566;52.700;6.192;2023-03-23T03:20:42;11.50;99.90
60717;DHT22;46566;52.700;6.192;2023-03-23T03:23:11;11.40;99.90
60717;DHT22;46566;52.700;6.192;2023-03-23T03:25:39;11.40;99.90
60717;DHT22;46566;52.700;6.192;2023-03-23T03:28:07;11.40;99.90
60717;DHT22;46566;52.700;6.192;2023-03-23T03:30:40;11.40;99.90
60717;DHT22;46566;52.700;6.192;2023-03-23T03:33:09;11.40;99.90
60717;DHT22;46566;52.700;6.192;2023-03-23T03:35:37;11.40;99.90
60717;DHT22;46566;52.700;6.192;2023-03-23T03:38:04;11.40;99.90
60717;DHT22;46566;52.700;6.192;2023-03-23T03:40:30;11.40;99.90
60717;DHT22;46566;52.700;6.192;2023-03-23T03:42:56;11.50;99.90
60717;DHT22;46566;52.700;6.192;2023-03-23T03:45:21;11.40;99.90
60717;DHT22;46566;52.700;6.192;2023-03-23T03:47:48;11.50;99.90
60717;DHT22;46566;52.700;6.192;2023-03-23T03:50:15;11.50;99.90
60717;DHT22;46566;52.700;6.192;2023-03-23T03:52:42;11.50;99.90
60717;DHT22;46566;52.700;6.192;2023-03-23T03:55:08;11.50;99.90
60717;DHT22;46566;52.700;6.192;2023-03-23T03:57:34;11.60;99.90
60717;DHT22;46566;52.700;6.192;2023-03-23T04:00:18;11.50;99.90
60717;DHT22;46566;52.700;6.192;2023-03-23T04:02:48;11.60;99.90
60717;DHT22;46566;52.700;6.192;2023-03-23T04:05:23;11.60;99.90
60717;DHT22;46566;52.700;6.192;2023-03-23T04:07:50;11.60;99.90
60717;DHT22;46566;52.700;6.192;2023-03-23T04:10:17;11.70;99.90
60717;DHT22;46566;52.700;6.192;2023-03-23T04:12:48;11.70;99.90
60717;DHT22;46566;52.700;6.192;2023-03-23T04:15:33;11.70;99.90
60717;DHT22;46566;52.700;6.192;2023-03-23T04:17:58;11.60;99.90
60717;DHT22;46566;52.700;6.192;2023-03-23T04:20:24;11.60;99.90
60717;DHT22;46566;52.700;6.192;2023-03-23T04:22:50;11.60;99.90
60717;DHT22;46566;52.700;6.192;2023-03-23T04:25:18;11.60;99.90
60717;DHT22;46566;52.700;6.192;2023-03-23T04:27:46;11.60;99.90
60717;DHT22;46566;52.700;6.192;2023-03-23T04:30:20;11.60;99.90
60717;DHT22;46566;52.700;6.192;2023-03-23T04:32:53;11.60;99.90
60717;DHT22;46566;52.700;6.192;2023-03-23T04:35:23;11.60;99.90
60717;DHT22;46566;52.700;6.192;2023-03-23T04:38:04;11.60;99.90
60717;DHT22;46566;52.700;6.192;2023-03-23T04:40:30;11.50;99.90
60717;DHT22;46566;52.700;6.192;2023-03-23T04:43:09;11.50;99.90
60717;DHT22;46566;52.700;6.192;2023-03-23T04:45:56;11.40;99.90
60717;DHT22;46566;52.700;6.192;2023-03-23T04:48:26;11.20;99.90
60717;DHT22;46566;52.700;6.192;2023-03-23T04:51:13;11.20;99.90
60717;DHT22;46566;52.700;6.192;2023-03-23T04:56:06;10.80;99.90
60717;DHT22;46566;52.700;6.192;2023-03-23T04:58:38;10.70;99.90
60717;DHT22;46566;52.700;6.192;2023-03-23T05:01:27;10.60;99.90
60717;DHT22;46566;52.700;6.192;2023-03-23T05:04:06;10.60;99.90
60717;DHT22;46566;52.700;6.192;2023-03-23T05:06:33;10.60;99.90
60717;DHT22;46566;52.700;6.192;2023-03-23T05:09:03;10.60;99.90
60717;DHT22;46566;52.700;6.192;2023-03-23T05:11:29;10.70;99.90
60717;DHT22;46566;52.700;6.192;2023-03-23T05:13:55;10.70;99.90
60717;DHT22;46566;52.700;6.192;2023-03-23T05:16:22;10.70;99.90
60717;DHT22;46566;52.700;6.192;2023-03-23T05:18:48;10.80;99.90
60717;DHT22;46566;52.700;6.192;2023-03-23T05:21:15;10.70;99.90
60717;DHT22;46566;52.700;6.192;2023-03-23T05:23:46;10.80;99.90
60717;DHT22;46566;52.700;6.192;2023-03-23T05:26:17;10.70;99.90
60717;DHT22;46566;52.700;6.192;2023-03-23T05:28:43;10.80;99.90
60717;DHT22;46566;52.700;6.192;2023-03-23T05:31:22;10.80;99.90
60717;DHT22;46566;52.700;6.192;2023-03-23T05:33:48;10.70;99.90
60717;DHT22;46566;52.700;6.192;2023-03-23T05:36:31;10.80;99.90
60717;DHT22;46566;52.700;6.192;2023-03-23T05:39:12;10.80;99.90
60717;DHT22;46566;52.700;6.192;2023-03-23T05:41:55;10.70;99.90
60717;DHT22;46566;52.700;6.192;2023-03-23T05:44:24;10.70;99.90
60717;DHT22;46566;52.700;6.192;2023-03-23T05:46:52;10.70;99.90
60717;DHT22;46566;52.700;6.192;2023-03-23T05:49:18;10.70;99.90
60717;DHT22;46566;52.700;6.192;2023-03-23T05:51:46;10.60;99.90
60717;DHT22;46566;52.700;6.192;2023-03-23T05:54:13;10.60;99.90
60717;DHT22;46566;52.700;6.192;2023-03-23T05:56:41;10.50;99.90
60717;DHT22;46566;52.700;6.192;2023-03-23T05:59:24;10.50;99.90
60717;DHT22;46566;52.700;6.192;2023-03-23T06:01:55;10.50;99.90
60717;DHT22;46566;52.700;6.192;2023-03-23T06:04:21;10.50;99.90
60717;DHT22;46566;52.700;6.192;2023-03-23T06:07:10;10.50;99.90
60717;DHT22;46566;52.700;6.192;2023-03-23T06:09:45;10.40;99.90
60717;DHT22;46566;52.700;6.192;2023-03-23T06:12:22;10.40;99.90
60717;DHT22;46566;52.700;6.192;2023-03-23T06:15:01;10.40;99.90
60717;DHT22;46566;52.700;6.192;2023-03-23T06:17:46;10.50;99.90
60717;DHT22;46566;52.700;6.192;2023-03-23T06:20:12;10.50;99.90
60717;DHT22;46566;52.700;6.192;2023-03-23T06:22:40;10.50;99.90
60717;DHT22;46566;52.700;6.192;2023-03-23T06:25:09;10.50;99.90
60717;DHT22;46566;52.700;6.192;2023-03-23T06:27:39;10.50;99.90
60717;DHT22;46566;52.700;6.192;2023-03-23T06:30:05;10.50;99.90
60717;DHT22;46566;52.700;6.192;2023-03-23T06:32:31;10.50;99.90
60717;DHT22;46566;52.700;6.192;2023-03-23T06:34:57;10.50;99.90
60717;DHT22;46566;52.700;6.192;2023-03-23T06:38:00;10.50;99.90
60717;DHT22;46566;52.700;6.192;2023-03-23T06:40:37;10.50;99.90
60717;DHT22;46566;52.700;6.192;2023-03-23T06:43:03;10.50;99.90
60717;DHT22;46566;52.700;6.192;2023-03-23T06:45:46;10.50;99.90
60717;DHT22;46566;52.700;6.192;2023-03-23T06:48:27;10.50;99.90
60717;DHT22;46566;52.700;6.192;2023-03-23T06:50:55;10.60;99.90
60717;DHT22;46566;52.700;6.192;2023-03-23T06:53:23;10.60;99.90
60717;DHT22;46566;52.700;6.192;2023-03-23T06:55:50;10.60;99.90
60717;DHT22;46566;52.700;6.192;2023-03-23T06:58:16;10.60;99.90
60717;DHT22;46566;52.700;6.192;2023-03-23T07:00:42;10.70;99.90
60717;DHT22;46566;52.700;6.192;2023-03-23T07:03:10;10.70;99.90
60717;DHT22;46566;52.700;6.192;2023-03-23T07:05:37;10.70;99.90
60717;DHT22;46566;52.700;6.192;2023-03-23T07:08:04;10.80;99.90
60717;DHT22;46566;52.700;6.192;2023-03-23T07:10:34;10.80;99.90
60717;DHT22;46566;52.700;6.192;2023-03-23T07:13:04;10.80;99.90
60717;DHT22;46566;52.700;6.192;2023-03-23T07:15:39;10.80;99.90
60717;DHT22;46566;52.700;6.192;2023-03-23T07:18:05;10.80;99.90
60717;DHT22;46566;52.700;6.192;2023-03-23T07:20:37;10.90;99.90
60717;DHT22;46566;52.700;6.192;2023-03-23T07:23:02;10.90;99.90
60717;DHT22;46566;52.700;6.192;2023-03-23T07:25:43;11.10;99.90
60717;DHT22;46566;52.700;6.192;2023-03-23T07:28:13;11.20;99.90
60717;DHT22;46566;52.700;6.192;2023-03-23T07:30:39;11.20;99.90
60717;DHT22;46566;52.700;6.192;2023-03-23T07:35:31;11.30;99.90
60717;DHT22;46566;52.700;6.192;2023-03-23T07:38:02;11.30;99.90
60717;DHT22;46566;52.700;6.192;2023-03-23T07:40:28;11.20;99.90
60717;DHT22;46566;52.700;6.192;2023-03-23T07:43:01;11.20;99.90
60717;DHT22;46566;52.700;6.192;2023-03-23T07:45:47;11.30;99.90
60717;DHT22;46566;52.700;6.192;2023-03-23T07:48:15;11.40;99.90
60717;DHT22;46566;52.700;6.192;2023-03-23T07:50:40;11.40;99.90
60717;DHT22;46566;52.700;6.192;2023-03-23T07:53:09;11.30;99.90
60717;DHT22;46566;52.700;6.192;2023-03-23T07:55:36;11.40;99.90
60717;DHT22;46566;52.700;6.192;2023-03-23T07:58:06;11.40;99.90
60717;DHT22;46566;52.700;6.192;2023-03-23T08:00:32;11.40;99.90
60717;DHT22;46566;52.700;6.192;2023-03-23T08:03:04;11.40;99.90
60717;DHT22;46566;52.700;6.192;2023-03-23T08:05:59;11.40;99.90
60717;DHT22;46566;52.700;6.192;2023-03-23T08:08:45;11.50;99.90
60717;DHT22;46566;52.700;6.192;2023-03-23T08:11:46;11.40;99.90
60717;DHT22;46566;52.700;6.192;2023-03-23T08:14:33;11.60;99.90
60717;DHT22;46566;52.700;6.192;2023-03-23T08:17:24;11.60;99.90
60717;DHT22;46566;52.700;6.192;2023-03-23T08:20:15;11.50;99.90
60717;DHT22;46566;52.700;6.192;2023-03-23T08:23:07;11.60;99.90
60717;DHT22;46566;52.700;6.192;2023-03-23T08:25:51;11.60;99.90
60717;DHT22;46566;52.700;6.192;2023-03-23T08:28:52;11.60;99.90
60717;DHT22;46566;52.700;6.192;2023-03-23T08:31:50;11.60;99.90
60717;DHT22;46566;52.700;6.192;2023-03-23T08:34:42;11.60;99.90
60717;DHT22;46566;52.700;6.192;2023-03-23T08:37:28;11.60;99.90
60717;DHT22;46566;52.700;6.192;2023-03-23T08:40:03;11.70;99.90
60717;DHT22;46566;52.700;6.192;2023-03-23T08:43:00;11.60;99.90
60717;DHT22;46566;52.700;6.192;2023-03-23T08:45:57;11.80;99.90
60717;DHT22;46566;52.700;6.192;2023-03-23T08:49:01;11.80;99.90
60717;DHT22;46566;52.700;6.192;2023-03-23T08:51:45;11.90;99.90
60717;DHT22;46566;52.700;6.192;2023-03-23T08:54:30;11.80;99.90
60717;DHT22;46566;52.700;6.192;2023-03-23T08:57:24;11.80;99.90
60717;DHT22;46566;52.700;6.192;2023-03-23T09:00:08;11.80;99.90
60717;DHT22;46566;52.700;6.192;2023-03-23T09:03:01;12.00;99.90
60717;DHT22;46566;52.700;6.192;2023-03-23T09:08:51;12.00;99.90
60717;DHT22;46566;52.700;6.192;2023-03-23T09:11:18;12.20;99.90
60717;DHT22;46566;52.700;6.192;2023-03-23T09:13:43;12.50;99.90
60717;DHT22;46566;52.700;6.192;2023-03-23T09:16:22;12.50;99.90
60717;DHT22;46566;52.700;6.192;2023-03-23T09:18:47;12.50;99.90
60717;DHT22;46566;52.700;6.192;2023-03-23T09:21:15;12.30;99.90
60717;DHT22;46566;52.700;6.192;2023-03-23T09:23:41;12.20;99.90
60717;DHT22;46566;52.700;6.192;2023-03-23T09:26:09;12.20;99.90
60717;DHT22;46566;52.700;6.192;2023-03-23T09:31:26;12.60;99.90
60717;DHT22;46566;52.700;6.192;2023-03-23T09:39:12;13.50;99.90
60717;DHT22;46566;52.700;6.192;2023-03-23T09:47:06;13.80;99.90
60717;DHT22;46566;52.700;6.192;2023-03-23T09:49:37;13.80;99.90
60717;DHT22;46566;52.700;6.192;2023-03-23T09:54:51;13.40;99.90
60717;DHT22;46566;52.700;6.192;2023-03-23T09:59:57;13.30;99.90
60717;DHT22;46566;52.700;6.192;2023-03-23T10:02:38;13.20;99.90
60717;DHT22;46566;52.700;6.192;2023-03-23T10:05:17;13.10;99.90
60717;DHT22;46566;52.700;6.192;2023-03-23T10:07:44;13.20;99.90
60717;DHT22;46566;52.700;6.192;2023-03-23T10:13:14;13.40;99.90
60717;DHT22;46566;52.700;6.192;2023-03-23T10:15:42;13.60;99.90
60717;DHT22;46566;52.700;6.192;2023-03-23T10:21:00;14.00;99.90
60717;DHT22;46566;52.700;6.192;2023-03-23T10:26:46;14.40;99.90
60717;DHT22;46566;52.700;6.192;2023-03-23T10:32:13;14.40;99.90
60717;DHT22;46566;52.700;6.192;2023-03-23T10:39:56;14.40;99.90
60717;DHT22;46566;52.700;6.192;2023-03-23T10:42:35;14.30;99.90
60717;DHT22;46566;52.700;6.192;2023-03-23T10:47:51;14.10;99.90
60717;DHT22;46566;52.700;6.192;2023-03-23T10:50:18;14.10;99.90
60717;DHT22;46566;52.700;6.192;2023-03-23T10:58:29;15.10;99.90
60717;DHT22;46566;52.700;6.192;2023-03-23T11:03:41;15.60;99.90
60717;DHT22;46566;52.700;6.192;2023-03-23T11:11:51;15.80;99.90
60717;DHT22;46566;52.700;6.192;2023-03-23T11:19:56;15.60;99.90
60717;DHT22;46566;52.700;6.192;2023-03-23T11:32:51;15.60;99.90
60717;DHT22;46566;52.700;6.192;2023-03-23T11:35:21;15.50;99.90
60717;DHT22;46566;52.700;6.192;2023-03-23T11:37:54;15.30;99.90
60717;DHT22;46566;52.700;6.192;2023-03-23T11:43:17;15.20;99.90
60717;DHT22;46566;52.700;6.192;2023-03-23T11:45:54;15.50;99.90
60717;DHT22;46566;52.700;6.192;2023-03-23T11:49:01;15.70;99.90
60717;DHT22;46566;52.700;6.192;2023-03-23T11:51:30;15.90;99.90
60717;DHT22;46566;52.700;6.192;2023-03-23T11:56:43;15.70;99.90
60717;DHT22;46566;52.700;6.192;2023-03-23T11:59:25;15.70;99.90
60717;DHT22;46566;52.700;6.192;2023-03-23T12:04:56;15.40;99.90
60717;DHT22;46566;52.700;6.192;2023-03-23T12:10:20;15.20;99.90
60717;DHT22;46566;52.700;6.192;2023-03-23T12:12:57;15.10;99.90
60717;DHT22;46566;52.700;6.192;2023-03-23T12:15:48;15.10;99.90
60717;DHT22;46566;52.700;6.192;2023-03-23T12:21:38;15.10;99.90
60717;DHT22;46566;52.700;6.192;2023-03-23T12:32:50;14.80;99.90
60717;DHT22;46566;52.700;6.192;2023-03-23T12:35:27;14.70;99.90
60717;DHT22;46566;52.700;6.192;2023-03-23T12:38:19;14.60;99.90
60717;DHT22;46566;52.700;6.192;2023-03-23T12:40:49;14.60;99.90
60717;DHT22;46566;52.700;6.192;2023-03-23T12:43:19;14.70;99.90
60717;DHT22;46566;52.700;6.192;2023-03-23T12:48:33;15.10;99.90
60717;DHT22;46566;52.700;6.192;2023-03-23T12:54:15;15.50;99.90
60717;DHT22;46566;52.700;6.192;2023-03-23T13:01:55;16.30;99.90
60717;DHT22;46566;52.700;6.192;2023-03-23T13:04:32;16.40;99.90
60717;DHT22;46566;52.700;6.192;2023-03-23T13:09:55;16.50;97.80
60717;DHT22;46566;52.700;6.192;2023-03-23T13:12:23;16.30;99.90
60717;DHT22;46566;52.700;6.192;2023-03-23T13:14:55;16.40;99.90
60717;DHT22;46566;52.700;6.192;2023-03-23T13:17:55;16.40;99.90
60717;DHT22;46566;52.700;6.192;2023-03-23T13:23:15;16.60;99.90
60717;DHT22;46566;52.700;6.192;2023-03-23T13:28:15;16.80;99.90
60717;DHT22;46566;52.700;6.192;2023-03-23T13:33:32;16.50;99.90
60717;DHT22;46566;52.700;6.192;2023-03-23T13:36:09;16.20;99.90
60717;DHT22;46566;52.700;6.192;2023-03-23T13:41:26;15.60;99.90
60717;DHT22;46566;52.700;6.192;2023-03-23T13:43:52;15.30;99.90
60717;DHT22;46566;52.700;6.192;2023-03-23T14:01:54;13.70;99.90
60717;DHT22;46566;52.700;6.192;2023-03-23T14:04:20;13.70;99.90
60717;DHT22;46566;52.700;6.192;2023-03-23T14:07:08;13.90;99.90
60717;DHT22;46566;52.700;6.192;2023-03-23T14:09:37;13.90;99.90
60717;DHT22;46566;52.700;6.192;2023-03-23T14:12:04;13.90;99.90
60717;DHT22;46566;52.700;6.192;2023-03-23T14:14:39;13.80;99.90
60717;DHT22;46566;52.700;6.192;2023-03-23T14:17:22;13.90;99.90
60717;DHT22;46566;52.700;6.192;2023-03-23T14:19:50;14.00;99.90
60717;DHT22;46566;52.700;6.192;2023-03-23T14:27:39;14.60;99.90
60717;DHT22;46566;52.700;6.192;2023-03-23T14:30:08;14.70;99.90
60717;DHT22;46566;52.700;6.192;2023-03-23T14:32:34;14.80;99.90
60717;DHT22;46566;52.700;6.192;2023-03-23T14:35:37;14.90;99.90
60717;DHT22;46566;52.700;6.192;2023-03-23T14:37:55;15.00;99.90
60717;DHT22;46566;52.700;6.192;2023-03-23T14:40:20;15.10;99.90
60717;DHT22;46566;52.700;6.192;2023-03-23T14:45:37;15.20;99.90
60717;DHT22;46566;52.700;6.192;2023-03-23T14:48:03;15.20;99.90
60717;DHT22;46566;52.700;6.192;2023-03-23T14:55:46;15.10;99.90
60717;DHT22;46566;52.700;6.192;2023-03-23T14:58:13;15.00;99.90
60717;DHT22;46566;52.700;6.192;2023-03-23T15:00:40;14.90;99.90
60717;DHT22;46566;52.700;6.192;2023-03-23T15:03:19;14.80;99.90
60717;DHT22;46566;52.700;6.192;2023-03-23T15:05:46;14.90;99.90
60717;DHT22;46566;52.700;6.192;2023-03-23T15:08:14;14.90;99.90
60717;DHT22;46566;52.700;6.192;2023-03-23T15:10:41;14.90;99.90
60717;DHT22;46566;52.700;6.192;2023-03-23T15:13:09;14.90;99.90
60717;DHT22;46566;52.700;6.192;2023-03-23T15:15:52;14.90;99.90
60717;DHT22;46566;52.700;6.192;2023-03-23T15:18:29;14.90;99.90
60717;DHT22;46566;52.700;6.192;2023-03-23T15:20:55;14.90;99.90
60717;DHT22;46566;52.700;6.192;2023-03-23T15:23:40;14.90;99.90
60717;DHT22;46566;52.700;6.192;2023-03-23T15:26:06;14.90;99.90
60717;DHT22;46566;52.700;6.192;2023-03-23T15:28:38;14.80;99.90
60717;DHT22;46566;52.700;6.192;2023-03-23T15:31:05;14.90;99.90
60717;DHT22;46566;52.700;6.192;2023-03-23T15:33:43;14.90;99.90
60717;DHT22;46566;52.700;6.192;2023-03-23T15:36:16;14.80;99.90
60717;DHT22;46566;52.700;6.192;2023-03-23T15:38:43;14.80;99.90
60717;DHT22;46566;52.700;6.192;2023-03-23T15:55:37;14.60;99.90
60717;DHT22;46566;52.700;6.192;2023-03-23T15:58:10;14.60;99.90
60717;DHT22;46566;52.700;6.192;2023-03-23T16:03:36;14.60;99.90
60717;DHT22;46566;52.700;6.192;2023-03-23T16:06:02;14.60;99.90
60717;DHT22;46566;52.700;6.192;2023-03-23T16:11:19;14.50;99.90
60717;DHT22;46566;52.700;6.192;2023-03-23T16:13:58;14.40;99.90
60717;DHT22;46566;52.700;6.192;2023-03-23T16:16:45;14.40;99.90
60717;DHT22;46566;52.700;6.192;2023-03-23T16:19:12;14.40;99.90
60717;DHT22;46566;52.700;6.192;2023-03-23T16:21:51;14.30;99.90
60717;DHT22;46566;52.700;6.192;2023-03-23T16:24:25;14.20;99.90
60717;DHT22;46566;52.700;6.192;2023-03-23T16:26:52;14.10;99.90
60717;DHT22;46566;52.700;6.192;2023-03-23T16:32:00;14.00;99.90
60717;DHT22;46566;52.700;6.192;2023-03-23T16:34:43;14.00;99.90
60717;DHT22;46566;52.700;6.192;2023-03-23T16:46:00;13.80;99.90
60717;DHT22;46566;52.700;6.192;2023-03-23T16:51:08;13.60;99.90
60717;DHT22;46566;52.700;6.192;2023-03-23T17:08:40;13.30;99.90
60717;DHT22;46566;52.700;6.192;2023-03-23T17:11:14;13.30;99.90
60717;DHT22;46566;52.700;6.192;2023-03-23T17:13:40;13.30;99.90
60717;DHT22;46566;52.700;6.192;2023-03-23T17:16:24;13.30;99.90
60717;DHT22;46566;52.700;6.192;2023-03-23T17:27:23;13.20;99.90
60717;DHT22;46566;52.700;6.192;2023-03-23T17:29:49;13.20;99.90
60717;DHT22;46566;52.700;6.192;2023-03-23T17:32:15;13.20;99.90
60717;DHT22;46566;52.700;6.192;2023-03-23T17:34:54;13.20;99.90
60717;DHT22;46566;52.700;6.192;2023-03-23T17:37:20;13.10;99.90
60717;DHT22;46566;52.700;6.192;2023-03-23T17:39:46;13.10;99.90
60717;DHT22;46566;52.700;6.192;2023-03-23T17:42:12;13.10;99.90
60717;DHT22;46566;52.700;6.192;2023-03-23T17:44:38;13.10;99.90
60717;DHT22;46566;52.700;6.192;2023-03-23T17:49:54;13.10;99.90
60717;DHT22;46566;52.700;6.192;2023-03-23T17:52:20;13.10;99.90
60717;DHT22;46566;52.700;6.192;2023-03-23T17:54:45;13.10;99.90
60717;DHT22;46566;52.700;6.192;2023-03-23T17:57:11;13.10;99.90
60717;DHT22;46566;52.700;6.192;2023-03-23T17:59:36;13.10;99.90
60717;DHT22;46566;52.700;6.192;2023-03-23T18:02:02;13.10;99.90
60717;DHT22;46566;52.700;6.192;2023-03-23T18:04:27;13.10;99.90
60717;DHT22;46566;52.700;6.192;2023-03-23T18:06:54;13.00;99.90
60717;DHT22;46566;52.700;6.192;2023-03-23T18:09:21;13.00;99.90
60717;DHT22;46566;52.700;6.192;2023-03-23T18:11:46;13.00;99.90
60717;DHT22;46566;52.700;6.192;2023-03-23T18:14:12;13.00;99.90
60717;DHT22;46566;52.700;6.192;2023-03-23T18:16:37;13.00;99.90
60717;DHT22;46566;52.700;6.192;2023-03-23T18:19:03;13.00;99.90
60717;DHT22;46566;52.700;6.192;2023-03-23T18:21:29;13.00;99.90
60717;DHT22;46566;52.700;6.192;2023-03-23T18:23:54;13.00;99.90
60717;DHT22;46566;52.700;6.192;2023-03-23T18:26:20;13.00;99.90
60717;DHT22;46566;52.700;6.192;2023-03-23T18:28:46;13.00;99.90
60717;DHT22;46566;52.700;6.192;2023-03-23T18:31:13;13.00;99.90
60717;DHT22;46566;52.700;6.192;2023-03-23T18:33:39;13.00;99.90
60717;DHT22;46566;52.700;6.192;2023-03-23T18:36:13;12.90;99.90
60717;DHT22;46566;52.700;6.192;2023-03-23T18:38:38;13.00;99.90
60717;DHT22;46566;52.700;6.192;2023-03-23T18:41:04;12.90;99.90
60717;DHT22;46566;52.700;6.192;2023-03-23T18:43:30;12.90;99.90
60717;DHT22;46566;52.700;6.192;2023-03-23T18:45:56;12.90;99.90
60717;DHT22;46566;52.700;6.192;2023-03-23T18:48:22;12.80;99.90
60717;DHT22;46566;52.700;6.192;2023-03-23T18:50:48;12.80;99.90
60717;DHT22;46566;52.700;6.192;2023-03-23T18:53:14;12.80;99.90
60717;DHT22;46566;52.700;6.192;2023-03-23T18:55:41;12.70;99.90
60717;DHT22;46566;52.700;6.192;2023-03-23T18:58:06;12.70;99.90
60717;DHT22;46566;52.700;6.192;2023-03-23T19:00:32;12.70;99.90
60717;DHT22;46566;52.700;6.192;2023-03-23T19:02:58;12.60;99.90
60717;DHT22;46566;52.700;6.192;2023-03-23T19:05:24;12.60;99.90
60717;DHT22;46566;52.700;6.192;2023-03-23T19:07:50;12.50;99.90
60717;DHT22;46566;52.700;6.192;2023-03-23T19:10:18;12.60;99.90
60717;DHT22;46566;52.700;6.192;2023-03-23T19:12:45;12.60;99.90
60717;DHT22;46566;52.700;6.192;2023-03-23T19:15:11;12.60;99.90
60717;DHT22;46566;52.700;6.192;2023-03-23T19:17:36;12.70;99.90
60717;DHT22;46566;52.700;6.192;2023-03-23T19:20:02;12.70;99.90
60717;DHT22;46566;52.700;6.192;2023-03-23T19:22:28;12.70;99.90
60717;DHT22;46566;52.700;6.192;2023-03-23T19:24:53;12.70;99.90
60717;DHT22;46566;52.700;6.192;2023-03-23T19:27:19;12.70;99.90
60717;DHT22;46566;52.700;6.192;2023-03-23T19:29:45;12.70;99.90
60717;DHT22;46566;52.700;6.192;2023-03-23T19:32:10;12.60;99.90
60717;DHT22;46566;52.700;6.192;2023-03-23T19:34:36;12.60;99.90
60717;DHT22;46566;52.700;6.192;2023-03-23T19:37:03;12.50;99.90
60717;DHT22;46566;52.700;6.192;2023-03-23T19:39:28;12.50;99.90
60717;DHT22;46566;52.700;6.192;2023-03-23T19:41:54;12.50;99.90
60717;DHT22;46566;52.700;6.192;2023-03-23T19:44:20;12.50;99.90
60717;DHT22;46566;52.700;6.192;2023-03-23T19:46:46;12.50;99.90
60717;DHT22;46566;52.700;6.192;2023-03-23T19:49:12;12.40;99.90
60717;DHT22;46566;52.700;6.192;2023-03-23T19:51:38;12.40;99.90